createdAt,value
2018-09-05T00:00:46.681Z,99188.80
2018-09-05T00:03:15.702Z,99192.88
2018-09-05T00:05:44.699Z,99190.64
2018-09-05T00:08:13.654Z,99193.94
2018-09-05T00:10:42.588Z,99193.94
2018-09-05T00:13:12.318Z,99198.59
2018-09-05T00:15:41.374Z,99198.92
2018-09-05T00:18:10.624Z,99198.66
2018-09-05T00:20:39.826Z,99199.77
2018-09-05T00:23:09.742Z,99201.45
2018-09-05T00:25:38.779Z,99199.27
2018-09-05T00:28:07.878Z,99206.12
2018-09-05T00:30:36.836Z,99210.23
2018-09-05T00:33:05.920Z,99211.07
2018-09-05T00:35:34.855Z,99211.39
2018-09-05T00:38:04.799Z,99213.31
2018-09-05T00:40:33.850Z,99206.47
2018-09-05T00:43:02.914Z,99207.83
2018-09-05T00:45:31.958Z,99208.66
2018-09-05T00:48:01.098Z,99209.47
2018-09-05T00:50:30.442Z,99209.20
2018-09-05T00:52:59.503Z,99216.32
2018-09-05T00:55:28.384Z,99217.16
2018-09-05T00:57:57.582Z,99217.16
2018-09-05T01:00:26.525Z,99209.49
2018-09-05T01:02:55.830Z,99217.42
2018-09-05T01:05:24.829Z,99210.31
2018-09-05T01:07:53.827Z,99218.80
2018-09-05T01:10:22.858Z,99213.31
2018-09-05T01:12:52.274Z,99208.66
2018-09-05T01:15:21.370Z,99212.44
2018-09-05T01:17:50.710Z,99214.08
2018-09-05T01:20:19.576Z,99213.23
2018-09-05T01:22:48.589Z,99214.28
2018-09-05T01:25:17.535Z,99212.36
2018-09-05T01:27:46.404Z,99208.77
2018-09-05T01:30:15.417Z,99209.06
2018-09-05T01:32:44.441Z,99210.17
2018-09-05T01:35:14.275Z,99211.86
2018-09-05T01:37:43.335Z,99215.45
2018-09-05T01:40:12.377Z,99217.42
2018-09-05T01:42:42.026Z,99212.30
2018-09-05T01:45:10.978Z,99212.58
2018-09-05T01:47:39.971Z,99215.91
2018-09-05T01:50:09.012Z,99216.45
2018-09-05T01:52:38.056Z,99215.64
2018-09-05T01:55:07.305Z,99213.74
2018-09-05T01:57:36.279Z,99216.80
2018-09-05T02:00:05.442Z,99213.24
2018-09-05T02:02:34.996Z,99208.87
2018-09-05T02:05:04.225Z,99207.27
2018-09-05T02:07:33.292Z,99207.30
2018-09-05T02:10:02.210Z,99206.25
2018-09-05T02:12:31.128Z,99211.72
2018-09-05T02:15:00.807Z,99209.27
2018-09-05T02:17:29.805Z,99204.34
2018-09-05T02:19:58.761Z,99210.70
2018-09-05T02:22:27.626Z,99208.52
2018-09-05T02:24:56.554Z,99214.83
2018-09-05T02:27:25.609Z,99214.33
2018-09-05T02:29:54.640Z,99211.88
2018-09-05T02:32:23.533Z,99217.70
2018-09-05T02:34:52.702Z,99216.38
2018-09-05T02:37:21.960Z,99213.70
2018-09-05T02:39:50.998Z,99217.83
2018-09-05T02:42:20.344Z,99218.14
2018-09-05T02:44:49.426Z,99219.30
2018-09-05T02:47:18.848Z,99219.32
2018-09-05T02:49:47.668Z,99215.48
2018-09-05T02:52:16.667Z,99219.85
2018-09-05T02:54:45.694Z,99229.70
2018-09-05T02:57:14.674Z,99225.02
2018-09-05T02:59:43.537Z,99224.45
2018-09-05T03:02:13.129Z,99224.45
2018-09-05T03:04:42.149Z,99229.94
2018-09-05T03:07:11.214Z,99235.97
2018-09-05T03:09:40.338Z,99235.41
2018-09-05T03:12:09.452Z,99237.86
2018-09-05T03:14:38.355Z,99236.18
2018-09-05T03:17:07.426Z,99240.55
2018-09-05T03:19:36.517Z,99247.66
2018-09-05T03:22:05.478Z,99246.56
2018-09-05T03:24:34.706Z,99251.22
2018-09-05T03:27:04.339Z,99253.14
2018-09-05T03:29:33.433Z,99253.95
2018-09-05T03:32:02.287Z,99255.88
2018-09-05T03:34:31.401Z,99266.28
2018-09-05T03:37:00.518Z,99269.86
2018-09-05T03:39:29.574Z,99265.80
2018-09-05T03:41:58.486Z,99271.88
2018-09-05T03:44:27.498Z,99273.58
2018-09-05T03:46:56.510Z,99268.16
2018-09-05T03:49:25.401Z,99270.92
2018-09-05T03:51:54.892Z,99274.81
2018-09-05T03:54:23.947Z,99280.89
2018-09-05T03:56:52.934Z,99280.36
2018-09-05T03:59:22.154Z,99283.64
2018-09-05T04:01:51.050Z,99283.14
2018-09-05T04:04:20.982Z,99280.69
2018-09-05T04:06:49.869Z,99283.73
2018-09-05T04:09:19.033Z,99283.47
2018-09-05T04:11:48.175Z,99284.30
2018-09-05T04:14:18.086Z,99282.98
2018-09-05T04:16:47.070Z,99281.34
2018-09-05T04:19:16.771Z,99284.95
2018-09-05T04:21:45.778Z,99282.49
2018-09-05T04:24:14.670Z,99288.28
2018-09-05T04:26:43.794Z,99289.93
2018-09-05T04:29:13.089Z,99294.59
2018-09-05T04:31:42.230Z,99296.50
2018-09-05T04:34:11.356Z,99292.71
2018-09-05T04:36:40.461Z,99300.92
2018-09-05T04:39:10.634Z,99307.76
2018-09-05T04:41:39.527Z,99309.68
2018-09-05T04:44:09.022Z,99311.05
2018-09-05T04:46:38.346Z,99314.84
2018-09-05T04:49:07.417Z,99315.97
2018-09-05T04:51:36.557Z,99316.48
2018-09-05T04:54:06.409Z,99317.84
2018-09-05T04:56:35.381Z,99317.06
2018-09-05T04:59:04.806Z,99322.27
2018-09-05T05:01:34.594Z,99320.36
2018-09-05T05:04:03.691Z,99329.38
2018-09-05T05:06:32.849Z,99326.36
2018-09-05T05:09:02.946Z,99331.80
2018-09-05T05:11:31.899Z,99335.03
2018-09-05T05:14:00.998Z,99338.31
2018-09-05T05:16:30.035Z,99346.79
2018-09-05T05:18:58.981Z,99351.67
2018-09-05T05:21:28.038Z,99353.31
2018-09-05T05:23:56.907Z,99345.88
2018-09-05T05:26:25.755Z,99356.28
2018-09-05T05:28:54.772Z,99360.39
2018-09-05T05:31:23.715Z,99364.21
2018-09-05T05:33:53.054Z,99364.17
2018-09-05T05:36:22.911Z,99359.47
2018-09-05T05:38:51.946Z,99364.89
2018-09-05T05:41:21.009Z,99362.10
2018-09-05T05:43:50.076Z,99363.74
2018-09-05T05:46:19.140Z,99362.10
2018-09-05T05:48:48.370Z,99371.14
2018-09-05T05:51:17.433Z,99368.66
2018-09-05T05:53:46.875Z,99367.28
2018-09-05T05:56:15.733Z,99366.41
2018-09-05T05:58:44.821Z,99367.45
2018-09-05T06:01:14.376Z,99369.86
2018-09-05T06:03:43.469Z,99365.70
2018-09-05T06:06:12.554Z,99367.87
2018-09-05T06:08:41.714Z,99369.46
2018-09-05T06:11:10.809Z,99368.59
2018-09-05T06:13:40.214Z,99367.77
2018-09-05T06:16:09.123Z,99370.95
2018-09-05T06:18:38.179Z,99371.17
2018-09-05T06:21:07.455Z,99374.95
2018-09-05T06:23:36.494Z,99382.33
2018-09-05T06:26:05.986Z,99376.85
2018-09-05T06:28:35.370Z,99376.30
2018-09-05T06:31:04.467Z,99378.70
2018-09-05T06:33:33.660Z,99379.16
2018-09-05T06:36:03.282Z,99377.45
2018-09-05T06:38:32.298Z,99375.48
2018-09-05T06:41:01.948Z,99380.12
2018-09-05T06:43:31.138Z,99379.52
2018-09-05T06:46:00.142Z,99374.26
2018-09-05T06:48:29.296Z,99378.03
2018-09-05T06:51:03.384Z,99372.77
2018-09-05T06:53:32.443Z,99373.80
2018-09-05T06:56:01.758Z,99374.56
2018-09-05T06:58:30.946Z,99376.98
2018-09-05T07:01:00.555Z,99375.59
2018-09-05T07:03:29.752Z,99370.06
2018-09-05T07:05:58.994Z,99375.20
2018-09-05T07:08:28.486Z,99377.86
2018-09-05T07:10:57.444Z,99379.45
2018-09-05T07:13:26.531Z,99381.79
2018-09-05T07:15:56.114Z,99379.52
2018-09-05T07:18:26.125Z,99376.43
2018-09-05T07:21:05.686Z,99386.18
2018-09-05T07:23:24.544Z,99383.91
2018-09-05T07:25:53.544Z,99383.30
2018-09-05T07:28:22.643Z,99381.31
2018-09-05T07:30:51.551Z,99389.19
2018-09-05T07:33:20.663Z,99389.40
2018-09-05T07:35:56.135Z,99390.71
2018-09-05T07:38:25.157Z,99392.61
2018-09-05T07:40:54.257Z,99388.98
2018-09-05T07:43:23.246Z,99390.53
2018-09-05T07:45:52.299Z,99389.63
2018-09-05T07:48:21.366Z,99398.59
2018-09-05T07:50:50.367Z,99392.19
2018-09-05T07:53:19.434Z,99386.28
2018-09-05T07:55:48.552Z,99390.60
2018-09-05T07:58:17.509Z,99382.27
2018-09-05T08:00:46.546Z,99384.33
2018-09-05T08:03:15.641Z,99394.11
2018-09-05T08:05:44.766Z,99388.26
2018-09-05T08:08:14.342Z,99386.75
2018-09-05T08:10:47.163Z,99388.84
2018-09-05T08:13:16.126Z,99388.16
2018-09-05T08:15:44.998Z,99383.08
2018-09-05T08:18:14.136Z,99383.50
2018-09-05T08:20:43.841Z,99381.46
2018-09-05T08:23:13.131Z,99382.47
2018-09-05T08:25:42.518Z,99387.38
2018-09-05T08:28:12.039Z,99385.14
2018-09-05T08:30:40.973Z,99382.81
2018-09-05T08:33:10.038Z,99383.78
2018-09-05T08:35:39.226Z,99378.40
2018-09-05T08:38:08.438Z,99379.88
2018-09-05T08:40:37.963Z,99373.38
2018-09-05T08:43:07.007Z,99381.52
2018-09-05T08:45:36.277Z,99381.66
2018-09-05T08:48:05.229Z,99371.89
2018-09-05T08:50:34.145Z,99373.88
2018-09-05T08:53:03.433Z,99374.50
2018-09-05T08:55:32.380Z,99373.74
2018-09-05T08:58:01.448Z,99374.69
2018-09-05T09:00:30.783Z,99376.42
2018-09-05T09:02:59.993Z,99371.83
2018-09-05T09:05:29.177Z,99366.13
2018-09-05T09:07:58.184Z,99369.81
2018-09-05T09:10:27.689Z,99366.34
2018-09-05T09:12:56.932Z,99362.89
2018-09-05T09:15:26.050Z,99369.30
2018-09-05T09:17:56.532Z,99365.26
2018-09-05T09:20:25.465Z,99362.06
2018-09-05T09:22:54.698Z,99361.89
2018-09-05T09:25:23.616Z,99354.33
2018-09-05T09:27:52.994Z,99359.36
2018-09-05T09:30:22.279Z,99359.47
2018-09-05T09:32:51.388Z,99354.30
2018-09-05T09:35:20.854Z,99354.06
2018-09-05T09:37:50.543Z,99351.47
2018-09-05T09:40:19.885Z,99346.34
2018-09-05T09:42:49.602Z,99344.50
2018-09-05T09:45:18.630Z,99339.05
2018-09-05T09:47:48.043Z,99344.07
2018-09-05T09:50:17.177Z,99340.84
2018-09-05T09:52:46.360Z,99342.61
2018-09-05T09:55:15.427Z,99346.96
2018-09-05T09:57:44.414Z,99342.07
2018-09-05T10:00:13.989Z,99348.66
2018-09-05T10:02:48.241Z,99346.30
2018-09-05T10:05:23.056Z,99338.59
2018-09-05T10:07:56.979Z,99336.24
2018-09-05T10:10:31.031Z,99333.39
2018-09-05T10:13:05.201Z,99345.80
2018-09-05T10:15:39.399Z,99336.46
2018-09-05T10:18:14.355Z,99338.19
2018-09-05T10:20:43.577Z,99334.52
2018-09-05T10:23:13.342Z,99325.12
2018-09-05T10:25:42.147Z,99336.20
2018-09-05T10:28:11.233Z,99323.31
2018-09-05T10:30:40.178Z,99334.31
2018-09-05T10:33:09.231Z,99328.31
2018-09-05T10:35:38.229Z,99329.84
2018-09-05T10:38:07.342Z,99323.81
2018-09-05T10:40:36.277Z,99325.02
2018-09-05T10:43:05.331Z,99326.86
2018-09-05T10:45:34.267Z,99327.27
2018-09-05T10:48:03.357Z,99326.36
2018-09-05T10:50:32.746Z,99324.03
2018-09-05T10:53:01.804Z,99324.81
2018-09-05T10:55:31.229Z,99315.75
2018-09-05T10:58:00.355Z,99316.49
2018-09-05T11:00:29.583Z,99313.52
2018-09-05T11:02:59.161Z,99316.34
2018-09-05T11:05:28.302Z,99314.75
2018-09-05T11:07:57.494Z,99313.86
2018-09-05T11:10:26.464Z,99312.52
2018-09-05T11:12:55.767Z,99304.60
2018-09-05T11:15:24.855Z,99313.14
2018-09-05T11:17:53.727Z,99306.94
2018-09-05T11:20:22.750Z,99310.11
2018-09-05T11:22:51.901Z,99307.10
2018-09-05T11:25:20.888Z,99309.45
2018-09-05T11:27:49.967Z,99299.19
2018-09-05T11:30:19.160Z,99302.38
2018-09-05T11:32:48.434Z,99305.95
2018-09-05T11:35:17.467Z,99306.70
2018-09-05T11:37:46.665Z,99302.96
2018-09-05T11:40:15.875Z,99296.94
2018-09-05T11:42:45.694Z,99293.97
2018-09-05T11:45:14.624Z,99294.04
2018-09-05T11:47:43.771Z,99301.44
2018-09-05T11:50:12.931Z,99295.24
2018-09-05T11:52:42.035Z,99293.89
2018-09-05T11:55:11.584Z,99286.69
2018-09-05T11:57:41.021Z,99279.98
2018-09-05T12:00:10.380Z,99280.98
2018-09-05T12:02:39.725Z,99262.91
2018-09-05T12:05:09.510Z,99276.84
2018-09-05T12:07:38.744Z,99279.89
2018-09-05T12:10:08.201Z,99269.20
2018-09-05T12:12:38.202Z,99273.36
2018-09-05T12:15:07.411Z,99273.61
2018-09-05T12:17:36.677Z,99263.61
2018-09-05T12:20:06.339Z,99260.43
2018-09-05T12:22:35.381Z,99264.61
2018-09-05T12:25:04.573Z,99259.30
2018-09-05T12:27:33.609Z,99258.96
2018-09-05T12:30:03.145Z,99265.31
2018-09-05T12:32:32.140Z,99259.69
2018-09-05T12:35:01.135Z,99262.58
2018-09-05T12:37:30.497Z,99259.48
2018-09-05T12:39:59.614Z,99261.88
2018-09-05T12:42:28.593Z,99257.13
2018-09-05T12:44:57.752Z,99249.48
2018-09-05T12:47:26.833Z,99258.95
2018-09-05T12:50:26.678Z,99256.89
2018-09-05T12:52:56.617Z,99249.64
2018-09-05T12:55:26.761Z,99248.70
2018-09-05T12:57:56.099Z,99246.87
2018-09-05T13:00:25.199Z,99244.13
2018-09-05T13:02:55.063Z,99245.75
2018-09-05T13:05:25.486Z,99239.31
2018-09-05T13:07:54.945Z,99245.08
2018-09-05T13:10:24.172Z,99241.38
2018-09-05T13:12:53.133Z,99240.93
2018-09-05T13:15:22.071Z,99241.63
2018-09-05T13:17:51.065Z,99230.28
2018-09-05T13:20:20.284Z,99236.52
2018-09-05T13:22:49.313Z,99234.44
2018-09-05T13:25:18.652Z,99230.31
2018-09-05T13:27:47.623Z,99229.48
2018-09-05T13:30:17.653Z,99232.39
2018-09-05T13:32:46.777Z,99228.83
2018-09-05T13:35:15.923Z,99237.50
2018-09-05T13:37:44.837Z,99230.58
2018-09-05T13:40:14.493Z,99228.38
2018-09-05T13:42:43.509Z,99230.55
2018-09-05T13:45:12.578Z,99223.87
2018-09-05T13:47:41.713Z,99225.47
2018-09-05T13:50:10.884Z,99228.59
2018-09-05T13:52:40.025Z,99222.69
2018-09-05T13:55:09.414Z,99230.09
2018-09-05T13:57:38.466Z,99221.65
2018-09-05T14:00:07.591Z,99224.30
2018-09-05T14:02:36.624Z,99218.73
2018-09-05T14:05:05.732Z,99215.25
2018-09-05T14:07:34.810Z,99218.97
2018-09-05T14:10:03.989Z,99213.19
2018-09-05T14:12:33.093Z,99207.61
2018-09-05T14:15:02.085Z,99199.66
2018-09-05T14:17:32.006Z,99205.31
2018-09-05T14:20:01.070Z,99205.89
2018-09-05T14:22:30.592Z,99201.36
2018-09-05T14:24:59.842Z,99201.63
2018-09-05T14:27:28.817Z,99201.63
2018-09-05T14:29:58.025Z,99206.46
2018-09-05T14:32:27.089Z,99202.30
2018-09-05T14:34:56.776Z,99206.73
2018-09-05T14:37:25.827Z,99193.20
2018-09-05T14:39:54.996Z,99198.62
2018-09-05T14:42:24.304Z,99201.16
2018-09-05T14:44:53.730Z,99201.83
2018-09-05T14:47:23.338Z,99196.08
2018-09-05T14:49:52.651Z,99196.42
2018-09-05T14:52:21.729Z,99192.63
2018-09-05T14:54:50.662Z,99192.27
2018-09-05T14:57:19.800Z,99195.50
2018-09-05T14:59:48.838Z,99193.31
2018-09-05T15:02:18.973Z,99196.08
2018-09-05T15:04:48.043Z,99195.14
2018-09-05T15:07:17.276Z,99191.55
2018-09-05T15:09:46.191Z,99190.50
2018-09-05T15:12:15.198Z,99193.37
2018-09-05T15:14:44.510Z,99191.17
2018-09-05T15:17:13.493Z,99196.45
2018-09-05T15:19:42.400Z,99194.67
2018-09-05T15:22:11.472Z,99193.19
2018-09-05T15:24:40.710Z,99195.05
2018-09-05T15:27:10.086Z,99192.38
2018-09-05T15:29:38.966Z,99192.28
2018-09-05T15:32:08.169Z,99193.00
2018-09-05T15:34:37.263Z,99195.77
2018-09-05T15:37:06.357Z,99191.84
2018-09-05T15:39:35.490Z,99194.86
2018-09-05T15:42:04.422Z,99197.16
2018-09-05T15:44:34.310Z,99194.86
2018-09-05T15:47:03.960Z,99191.18
2018-09-05T15:49:33.072Z,99186.58
2018-09-05T15:52:02.355Z,99186.11
2018-09-05T15:54:31.460Z,99187.29
2018-09-05T15:57:00.563Z,99187.73
2018-09-05T15:59:29.672Z,99183.00
2018-09-05T16:01:59.889Z,99186.00
2018-09-05T16:04:29.208Z,99178.97
2018-09-05T16:06:57.995Z,99176.67
2018-09-05T16:09:27.050Z,99181.07
2018-09-05T16:11:56.397Z,99182.02
2018-09-05T16:14:25.566Z,99181.08
2018-09-05T16:16:54.554Z,99184.45
2018-09-05T16:19:23.721Z,99181.47
2018-09-05T16:21:52.911Z,99185.66
2018-09-05T16:24:22.305Z,99187.13
2018-09-05T16:26:51.925Z,99182.54
2018-09-05T16:29:21.118Z,99181.48
2018-09-05T16:31:50.187Z,99184.13
2018-09-05T16:34:19.520Z,99176.87
2018-09-05T16:36:48.510Z,99187.34
2018-09-05T16:39:17.708Z,99188.37
2018-09-05T16:41:46.742Z,99186.62
2018-09-05T16:44:15.867Z,99184.08
2018-09-05T16:46:45.044Z,99182.19
2018-09-05T16:49:14.600Z,99185.35
2018-09-05T16:51:44.157Z,99187.45
2018-09-05T16:54:13.557Z,99187.32
2018-09-05T16:56:42.547Z,99191.19
2018-09-05T16:59:11.665Z,99188.59
2018-09-05T17:01:40.625Z,99196.11
2018-09-05T17:04:09.593Z,99191.85
2018-09-05T17:06:38.582Z,99187.83
2018-09-05T17:09:09.941Z,99193.77
2018-09-05T17:11:39.300Z,99185.96
2018-09-05T17:14:08.255Z,99188.93
2018-09-05T17:16:38.075Z,99189.31
2018-09-05T17:19:07.877Z,99189.36
2018-09-05T17:21:36.912Z,99183.84
2018-09-05T17:24:06.697Z,99177.76
2018-09-05T17:26:35.802Z,99180.42
2018-09-05T17:29:05.472Z,99177.70
2018-09-05T17:31:34.696Z,99190.38
2018-09-05T17:34:04.127Z,99192.02
2018-09-05T17:36:33.269Z,99190.84
2018-09-05T17:39:02.632Z,99191.07
2018-09-05T17:41:31.609Z,99188.77
2018-09-05T17:44:00.485Z,99189.00
2018-09-05T17:46:29.582Z,99192.80
2018-09-05T17:48:59.297Z,99195.66
2018-09-05T17:51:28.751Z,99194.33
2018-09-05T17:53:57.903Z,99201.57
2018-09-05T17:56:26.857Z,99200.75
2018-09-05T17:58:55.964Z,99196.69
2018-09-05T18:01:25.755Z,99197.81
2018-09-05T18:03:54.917Z,99196.42
2018-09-05T18:06:24.517Z,99203.30
2018-09-05T18:08:53.491Z,99208.48
2018-09-05T18:11:22.888Z,99207.63
2018-09-05T18:13:51.942Z,99210.27
2018-09-05T18:16:21.144Z,99213.22
2018-09-05T18:18:50.431Z,99213.98
2018-09-05T18:21:19.651Z,99216.72
2018-09-05T18:23:49.109Z,99212.77
2018-09-05T18:26:18.427Z,99215.72
2018-09-05T18:28:47.462Z,99217.33
2018-09-05T18:31:16.756Z,99218.08
2018-09-05T18:33:45.918Z,99224.47
2018-09-05T18:36:15.081Z,99229.39
2018-09-05T18:38:44.577Z,99232.34
2018-09-05T18:41:13.705Z,99243.34
2018-09-05T18:43:42.807Z,99233.97
2018-09-05T18:46:12.246Z,99241.34
2018-09-05T18:48:41.320Z,99236.91
2018-09-05T18:51:10.303Z,99236.77
2018-09-05T18:53:39.407Z,99229.48
2018-09-05T18:56:08.686Z,99228.77
2018-09-05T18:58:37.693Z,99227.24
2018-09-05T19:01:06.707Z,99221.19
2018-09-05T19:03:35.969Z,99214.39
2018-09-05T19:06:04.914Z,99220.89
2018-09-05T19:08:34.101Z,99221.66
2018-09-05T19:11:03.683Z,99220.95
2018-09-05T19:13:32.874Z,99214.47
2018-09-05T19:16:01.954Z,99215.10
2018-09-05T19:18:31.961Z,99212.69
2018-09-05T19:21:01.299Z,99213.67
2018-09-05T19:23:30.402Z,99210.48
2018-09-05T19:25:59.741Z,99207.92
2018-09-05T19:28:29.139Z,99214.42
2018-09-05T19:30:58.993Z,99210.13
2018-09-05T19:33:28.083Z,99213.77
2018-09-05T19:35:57.518Z,99215.81
2018-09-05T19:38:26.581Z,99213.96
2018-09-05T19:40:55.736Z,99210.70
2018-09-05T19:43:24.714Z,99210.80
2018-09-05T19:45:53.670Z,99211.46
2018-09-05T19:48:22.506Z,99207.39
2018-09-05T19:50:51.718Z,99206.67
2018-09-05T19:53:21.409Z,99203.77
2018-09-05T19:55:50.603Z,99200.29
2018-09-05T19:58:19.722Z,99190.96
2018-09-05T20:00:48.739Z,99204.58
2018-09-05T20:03:17.712Z,99202.58
2018-09-05T20:05:46.691Z,99204.58
2018-09-05T20:08:16.669Z,99204.20
2018-09-05T20:10:46.235Z,99207.36
2018-09-05T20:13:15.326Z,99206.39
2018-09-05T20:15:44.402Z,99203.19
2018-09-05T20:18:13.620Z,99201.91
2018-09-05T20:20:42.609Z,99203.13
2018-09-05T20:23:11.717Z,99204.00
2018-09-05T20:25:40.813Z,99206.59
2018-09-05T20:28:09.839Z,99203.67
2018-09-05T20:30:39.270Z,99202.14
2018-09-05T20:33:08.680Z,99199.22
2018-09-05T20:35:38.404Z,99189.42
2018-09-05T20:38:07.282Z,99190.08
2018-09-05T20:40:36.365Z,99193.70
2018-09-05T20:43:05.463Z,99189.97
2018-09-05T20:45:34.604Z,99188.98
2018-09-05T20:48:04.212Z,99192.95
2018-09-05T20:50:33.358Z,99193.35
2018-09-05T20:53:02.366Z,99197.31
2018-09-05T20:55:31.330Z,99199.34
2018-09-05T20:58:00.688Z,99204.37
2018-09-05T21:00:29.654Z,99200.63
2018-09-05T21:02:58.657Z,99206.53
2018-09-05T21:05:28.139Z,99205.20
2018-09-05T21:07:57.165Z,99207.53
2018-09-05T21:10:26.244Z,99213.42
2018-09-05T21:12:55.256Z,99211.29
2018-09-05T21:15:27.116Z,99215.24
2018-09-05T21:17:55.990Z,99210.72
2018-09-05T21:20:25.192Z,99208.36
2018-09-05T21:22:54.096Z,99205.18
2018-09-05T21:25:23.073Z,99202.48
2018-09-05T21:27:52.165Z,99203.69
2018-09-05T21:30:21.459Z,99200.76
2018-09-05T21:32:50.561Z,99201.14
2018-09-05T21:35:19.474Z,99201.78
2018-09-05T21:37:48.583Z,99209.30
2018-09-05T21:40:17.607Z,99208.00
2018-09-05T21:42:46.618Z,99208.05
2018-09-05T21:45:16.271Z,99200.44
2018-09-05T21:47:45.501Z,99205.20
2018-09-05T21:50:14.738Z,99199.53
2018-09-05T21:52:44.086Z,99202.58
2018-09-05T21:55:13.531Z,99199.66
2018-09-05T21:57:42.714Z,99198.10
2018-09-05T22:00:12.355Z,99198.99
2018-09-05T22:02:41.722Z,99195.50
2018-09-05T22:05:10.774Z,99200.48
2018-09-05T22:07:40.159Z,99198.91
2018-09-05T22:10:09.495Z,99201.47
2018-09-05T22:12:38.408Z,99198.28
2018-09-05T22:15:07.958Z,99198.11
2018-09-05T22:17:37.103Z,99201.16
2018-09-05T22:20:06.253Z,99192.73
2018-09-05T22:22:35.377Z,99201.60
2018-09-05T22:25:04.508Z,99200.61
2018-09-05T22:27:33.829Z,99203.98
2018-09-05T22:30:02.901Z,99204.61
2018-09-05T22:32:31.853Z,99204.73
2018-09-05T22:35:00.834Z,99203.24
2018-09-05T22:37:29.815Z,99201.98
2018-09-05T22:39:58.827Z,99196.56
2018-09-05T22:42:27.811Z,99204.91
2018-09-05T22:45:07.921Z,99197.86
2018-09-05T22:48:46.640Z,99196.03
2018-09-05T22:51:33.222Z,99201.14
2018-09-05T22:54:16.902Z,99198.77
2018-09-05T22:58:05.408Z,99198.05
2018-09-05T23:02:49.567Z,99195.16
2018-09-05T23:08:48.391Z,99194.39
2018-09-05T23:11:59.473Z,99194.48
2018-09-05T23:14:40.445Z,99194.62
2018-09-05T23:17:21.046Z,99190.31
2018-09-05T23:21:00.119Z,99190.34
2018-09-05T23:23:40.676Z,99192.14
2018-09-05T23:26:09.865Z,99193.05
2018-09-05T23:28:39.490Z,99197.48
2018-09-05T23:31:08.633Z,99193.41
2018-09-05T23:33:38.462Z,99191.28
2018-09-05T23:36:08.089Z,99189.97
2018-09-05T23:38:37.694Z,99196.89
2018-09-05T23:41:07.373Z,99196.66
2018-09-05T23:43:36.468Z,99195.67
2018-09-05T23:46:05.446Z,99188.03
2018-09-05T23:48:34.462Z,99186.46
2018-09-05T23:51:03.636Z,99189.79
2018-09-05T23:53:33.414Z,99184.92
2018-09-05T23:56:02.417Z,99182.53
2018-09-05T23:58:32.204Z,99183.44
